createdAt,value
2023-02-26T00:02:25.157Z,100.00
2023-02-26T00:04:55.896Z,100.00
2023-02-26T00:07:30.501Z,100.00
2023-02-26T00:10:02.925Z,100.00
2023-02-26T00:12:33.993Z,100.00
2023-02-26T00:15:03.732Z,100.00
2023-02-26T00:17:43.049Z,100.00
2023-02-26T00:20:14.189Z,100.00
2023-02-26T00:22:44.342Z,100.00
2023-02-26T00:25:15.591Z,100.00
2023-02-26T00:27:44.933Z,100.00
2023-02-26T00:30:15.893Z,100.00
2023-02-26T00:32:46.234Z,100.00
2023-02-26T00:35:17.598Z,100.00
2023-02-26T00:38:01.764Z,100.00
2023-02-26T00:40:48.618Z,100.00
2023-02-26T00:43:22.719Z,100.00
2023-02-26T00:45:57.650Z,100.00
2023-02-26T00:48:39.751Z,100.00
2023-02-26T00:51:18.737Z,100.00
2023-02-26T00:53:52.115Z,100.00
2023-02-26T00:56:22.736Z,100.00
2023-02-26T00:58:52.662Z,100.00
2023-02-26T01:01:21.386Z,100.00
2023-02-26T01:03:51.547Z,100.00
2023-02-26T01:06:23.080Z,100.00
2023-02-26T01:08:56.562Z,100.00
2023-02-26T01:11:28.362Z,100.00
2023-02-26T01:13:58.053Z,100.00
2023-02-26T01:16:31.758Z,100.00
2023-02-26T01:19:13.673Z,100.00
2023-02-26T01:21:48.252Z,100.00
2023-02-26T01:24:19.301Z,100.00
2023-02-26T01:26:50.812Z,100.00
2023-02-26T01:29:20.892Z,100.00
2023-02-26T01:31:57.656Z,100.00
2023-02-26T01:34:33.637Z,100.00
2023-02-26T01:37:08.943Z,100.00
2023-02-26T01:39:43.083Z,100.00
2023-02-26T01:42:20.630Z,100.00
2023-02-26T01:44:57.647Z,100.00
2023-02-26T01:47:33.493Z,100.00
2023-02-26T01:50:13.027Z,100.00
2023-02-26T01:53:17.940Z,100.00
2023-02-26T01:55:50.112Z,100.00
2023-02-26T01:58:22.589Z,100.00
2023-02-26T02:00:53.343Z,100.00
2023-02-26T02:03:23.452Z,100.00
2023-02-26T02:05:56.075Z,100.00
2023-02-26T02:08:25.009Z,100.00
2023-02-26T02:10:55.285Z,100.00
2023-02-26T02:13:46.340Z,100.00
2023-02-26T02:16:26.961Z,100.00
2023-02-26T02:19:04.378Z,100.00
2023-02-26T02:22:06.421Z,100.00
2023-02-26T02:24:42.832Z,100.00
2023-02-26T02:27:19.277Z,100.00
2023-02-26T02:30:03.730Z,100.00
2023-02-26T02:32:38.362Z,100.00
2023-02-26T02:35:14.080Z,100.00
2023-02-26T02:37:48.967Z,100.00
2023-02-26T02:40:26.484Z,100.00
2023-02-26T02:43:02.146Z,100.00
2023-02-26T02:45:37.322Z,100.00
2023-02-26T02:48:12.495Z,100.00
2023-02-26T02:50:46.117Z,100.00
2023-02-26T02:53:19.749Z,100.00
2023-02-26T02:55:53.407Z,100.00
2023-02-26T02:58:26.419Z,100.00
2023-02-26T03:00:58.331Z,100.00
2023-02-26T03:03:33.947Z,100.00
2023-02-26T03:06:08.631Z,100.00
2023-02-26T03:08:41.146Z,100.00
2023-02-26T03:11:10.676Z,100.00
2023-02-26T03:13:42.435Z,100.00
2023-02-26T03:16:24.199Z,100.00
2023-02-26T03:19:02.227Z,100.00
2023-02-26T03:21:45.180Z,100.00
2023-02-26T03:24:17.807Z,100.00
2023-02-26T03:26:49.995Z,100.00
2023-02-26T03:29:25.722Z,100.00
2023-02-26T03:31:56.530Z,100.00
2023-02-26T03:37:32.127Z,100.00
2023-02-26T03:40:07.175Z,100.00
2023-02-26T03:42:38.952Z,100.00
2023-02-26T03:45:12.254Z,100.00
2023-02-26T03:47:42.975Z,100.00
2023-02-26T03:50:16.640Z,100.00
2023-02-26T03:52:47.185Z,100.00
2023-02-26T03:55:19.279Z,100.00
2023-02-26T03:57:48.553Z,100.00
2023-02-26T04:00:19.914Z,100.00
2023-02-26T04:02:58.668Z,100.00
2023-02-26T04:05:33.557Z,100.00
2023-02-26T04:08:03.448Z,100.00
2023-02-26T04:10:39.131Z,100.00
2023-02-26T04:13:10.648Z,100.00
2023-02-26T04:15:42.951Z,100.00
2023-02-26T04:18:14.716Z,100.00
2023-02-26T04:20:46.298Z,100.00
2023-02-26T04:23:15.456Z,100.00
2023-02-26T04:25:45.077Z,100.00
2023-02-26T04:28:13.861Z,100.00
2023-02-26T04:30:42.997Z,100.00
2023-02-26T04:33:11.838Z,100.00
2023-02-26T04:35:44.799Z,100.00
2023-02-26T04:38:14.623Z,100.00
2023-02-26T04:40:43.635Z,100.00
2023-02-26T04:43:12.386Z,100.00
2023-02-26T04:45:41.005Z,100.00
2023-02-26T04:48:10.384Z,100.00
2023-02-26T04:50:39.167Z,100.00
2023-02-26T04:53:09.372Z,100.00
2023-02-26T04:55:42.450Z,100.00
2023-02-26T04:58:11.761Z,100.00
2023-02-26T05:00:43.612Z,100.00
2023-02-26T05:03:13.730Z,100.00
2023-02-26T05:05:44.252Z,100.00
2023-02-26T05:08:15.821Z,100.00
2023-02-26T05:10:47.918Z,100.00
2023-02-26T05:13:16.616Z,100.00
2023-02-26T05:15:46.183Z,100.00
2023-02-26T05:18:15.176Z,100.00
2023-02-26T05:20:45.985Z,100.00
2023-02-26T05:23:17.399Z,100.00
2023-02-26T05:25:48.309Z,100.00
2023-02-26T05:28:20.660Z,100.00
2023-02-26T05:30:51.320Z,100.00
2023-02-26T05:33:21.236Z,100.00
2023-02-26T05:35:50.490Z,100.00
2023-02-26T05:38:29.117Z,100.00
2023-02-26T05:41:00.430Z,100.00
2023-02-26T05:43:31.503Z,100.00
2023-02-26T05:46:01.530Z,100.00
2023-02-26T05:48:31.022Z,100.00
2023-02-26T05:51:01.460Z,100.00
2023-02-26T05:53:30.458Z,100.00
2023-02-26T05:56:03.673Z,100.00
2023-02-26T05:58:34.904Z,100.00
2023-02-26T06:01:05.932Z,100.00
2023-02-26T06:03:36.404Z,100.00
2023-02-26T06:06:07.421Z,100.00
2023-02-26T06:08:37.513Z,100.00
2023-02-26T06:11:08.032Z,100.00
2023-02-26T06:13:38.103Z,100.00
2023-02-26T06:16:10.301Z,100.00
2023-02-26T06:18:42.699Z,100.00
2023-02-26T06:21:12.801Z,100.00
2023-02-26T06:26:29.038Z,100.00
2023-02-26T06:28:58.634Z,100.00
2023-02-26T06:31:28.675Z,100.00
2023-02-26T06:33:58.875Z,100.00
2023-02-26T06:36:28.785Z,100.00
2023-02-26T06:39:01.403Z,100.00
2023-02-26T06:41:35.473Z,100.00
2023-02-26T06:44:04.868Z,100.00
2023-02-26T06:46:34.811Z,100.00
2023-02-26T06:49:10.281Z,100.00
2023-02-26T06:51:40.562Z,100.00
2023-02-26T06:54:09.756Z,100.00
2023-02-26T06:56:42.648Z,100.00
2023-02-26T06:59:12.902Z,100.00
2023-02-26T07:01:42.290Z,100.00
2023-02-26T07:04:12.084Z,100.00
2023-02-26T07:06:42.154Z,100.00
2023-02-26T07:09:11.679Z,100.00
2023-02-26T07:11:43.444Z,100.00
2023-02-26T07:14:12.033Z,100.00
2023-02-26T07:16:42.958Z,100.00
2023-02-26T07:19:11.839Z,100.00
2023-02-26T07:21:40.822Z,100.00
2023-02-26T07:24:18.447Z,100.00
2023-02-26T07:26:54.678Z,100.00
2023-02-26T07:29:27.189Z,100.00
2023-02-26T07:31:56.969Z,100.00
2023-02-26T07:34:26.799Z,100.00
2023-02-26T07:36:55.617Z,100.00
2023-02-26T07:39:25.926Z,100.00
2023-02-26T07:41:56.461Z,100.00
2023-02-26T07:44:26.554Z,100.00
2023-02-26T07:46:55.645Z,100.00
2023-02-26T07:49:25.740Z,100.00
2023-02-26T07:57:30.913Z,100.00
2023-02-26T08:02:56.516Z,100.00
2023-02-26T08:05:28.304Z,100.00
2023-02-26T08:07:58.885Z,100.00
2023-02-26T08:10:28.359Z,100.00
2023-02-26T08:13:00.027Z,100.00
2023-02-26T08:15:32.133Z,100.00
2023-02-26T08:18:03.755Z,100.00
2023-02-26T08:20:37.212Z,100.00
2023-02-26T08:39:26.293Z,100.00
2023-02-26T08:41:55.380Z,100.00
2023-02-26T08:44:27.150Z,100.00
2023-02-26T08:47:13.601Z,100.00
2023-02-26T08:50:08.866Z,100.00
2023-02-26T09:02:28.706Z,100.00
2023-02-26T09:05:03.787Z,100.00
2023-02-26T09:07:32.660Z,100.00
2023-02-26T09:10:01.305Z,100.00
2023-02-26T09:12:29.878Z,100.00
2023-02-26T09:15:01.911Z,100.00
2023-02-26T09:17:32.622Z,100.00
2023-02-26T09:20:02.062Z,100.00
2023-02-26T09:22:38.366Z,100.00
2023-02-26T09:25:07.739Z,100.00
2023-02-26T09:27:36.599Z,100.00
2023-02-26T09:30:05.671Z,100.00
2023-02-26T09:32:35.666Z,100.00
2023-02-26T09:35:04.753Z,100.00
2023-02-26T09:37:33.513Z,100.00
2023-02-26T09:40:03.534Z,100.00
2023-02-26T09:42:49.336Z,100.00
2023-02-26T09:45:26.322Z,100.00
2023-02-26T09:47:56.413Z,100.00
2023-02-26T09:50:27.552Z,100.00
2023-02-26T09:53:00.791Z,100.00
2023-02-26T09:55:31.849Z,100.00
2023-02-26T09:58:01.902Z,100.00
2023-02-26T10:00:38.496Z,100.00
2023-02-26T10:03:18.234Z,100.00
2023-02-26T10:05:55.191Z,100.00
2023-02-26T10:08:28.292Z,90.60
2023-02-26T10:11:03.835Z,90.92
2023-02-26T10:13:57.074Z,91.55
2023-02-26T10:16:29.807Z,92.98
2023-02-26T10:19:05.229Z,91.62
2023-02-26T10:21:42.802Z,91.27
2023-02-26T10:24:15.749Z,94.64
2023-02-26T10:26:50.531Z,93.40
2023-02-26T10:29:26.077Z,87.85
2023-02-26T10:32:03.936Z,90.46
2023-02-26T10:34:37.607Z,89.59
2023-02-26T10:37:16.445Z,94.75
2023-02-26T10:39:59.242Z,86.12
2023-02-26T10:42:29.844Z,95.64
2023-02-26T10:45:13.073Z,87.16
2023-02-26T10:47:47.732Z,91.01
2023-02-26T10:50:21.333Z,92.36
2023-02-26T10:52:51.310Z,90.93
2023-02-26T10:55:32.196Z,84.47
2023-02-26T10:58:05.323Z,95.78
2023-02-26T11:00:35.940Z,86.57
2023-02-26T11:03:05.416Z,94.18
2023-02-26T11:05:35.749Z,88.49
2023-02-26T11:08:08.001Z,88.12
2023-02-26T11:10:43.556Z,97.59
2023-02-26T11:13:13.005Z,89.39
2023-02-26T11:15:42.409Z,89.23
2023-02-26T11:18:17.068Z,91.23
2023-02-26T11:20:48.264Z,82.89
2023-02-26T11:23:20.489Z,84.29
2023-02-26T11:25:53.621Z,86.99
2023-02-26T11:28:24.667Z,95.18
2023-02-26T11:30:54.820Z,83.11
2023-02-26T11:33:26.015Z,81.48
2023-02-26T11:36:02.594Z,78.97
2023-02-26T11:38:33.836Z,80.53
2023-02-26T11:41:03.253Z,75.86
2023-02-26T11:43:37.893Z,80.80
2023-02-26T11:46:07.660Z,76.40
2023-02-26T11:48:41.893Z,79.65
2023-02-26T11:51:16.510Z,77.94
2023-02-26T11:53:51.456Z,84.07
2023-02-26T11:56:26.711Z,80.16
2023-02-26T11:58:56.908Z,75.07
2023-02-26T12:01:30.043Z,73.34
2023-02-26T12:04:03.656Z,73.16
2023-02-26T12:06:36.085Z,69.20
2023-02-26T12:09:12.626Z,68.22
2023-02-26T12:12:10.351Z,66.99
2023-02-26T12:15:08.895Z,69.50
2023-02-26T12:17:51.666Z,71.50
2023-02-26T12:20:25.988Z,70.75
2023-02-26T12:23:07.552Z,74.58
2023-02-26T12:26:00.545Z,71.68
2023-02-26T12:28:53.087Z,67.95
2023-02-26T12:31:48.645Z,67.17
2023-02-26T12:34:38.677Z,72.62
2023-02-26T12:37:21.660Z,75.66
2023-02-26T12:40:00.048Z,68.28
2023-02-26T12:42:45.332Z,69.63
2023-02-26T12:45:29.540Z,67.78
2023-02-26T12:48:08.555Z,67.76
2023-02-26T12:50:46.526Z,64.86
2023-02-26T12:53:41.303Z,69.22
2023-02-26T12:56:32.937Z,73.13
2023-02-26T12:59:16.196Z,76.80
2023-02-26T13:02:01.965Z,80.81
2023-02-26T13:05:03.731Z,82.55
2023-02-26T13:07:58.330Z,84.61
2023-02-26T13:10:35.233Z,84.81
2023-02-26T13:13:17.320Z,82.73
2023-02-26T13:15:58.178Z,91.30
2023-02-26T13:18:34.411Z,89.74
2023-02-26T13:21:09.361Z,85.35
2023-02-26T13:23:42.324Z,85.93
2023-02-26T13:26:13.206Z,86.13
2023-02-26T13:28:47.122Z,89.07
2023-02-26T13:31:19.140Z,94.00
2023-02-26T13:33:49.939Z,100.00
2023-02-26T13:36:18.875Z,100.00
2023-02-26T13:39:02.460Z,100.00
2023-02-26T13:41:40.505Z,100.00
2023-02-26T13:44:38.210Z,100.00
2023-02-26T13:47:22.792Z,100.00
2023-02-26T13:49:59.652Z,98.08
2023-02-26T13:52:38.269Z,99.44
2023-02-26T13:55:07.133Z,100.00
2023-02-26T13:57:38.951Z,100.00
2023-02-26T14:00:30.916Z,96.67
2023-02-26T14:03:11.988Z,96.08
2023-02-26T14:06:19.828Z,97.37
2023-02-26T14:08:50.646Z,91.66
2023-02-26T14:12:02.178Z,89.19
2023-02-26T14:14:42.351Z,91.15
2023-02-26T14:17:42.793Z,90.79
2023-02-26T14:20:22.561Z,88.64
2023-02-26T14:23:12.354Z,88.66
2023-02-26T14:25:42.340Z,91.32
2023-02-26T14:28:39.187Z,88.81
2023-02-26T14:31:28.136Z,89.33
2023-02-26T14:34:22.991Z,81.02
2023-02-26T14:36:54.201Z,75.35
2023-02-26T14:39:30.628Z,80.42
2023-02-26T14:42:03.973Z,81.46
2023-02-26T14:44:40.234Z,77.39
2023-02-26T14:47:10.261Z,80.68
2023-02-26T14:49:43.001Z,83.28
2023-02-26T14:52:38.303Z,84.39
2023-02-26T14:55:45.541Z,82.55
2023-02-26T14:58:28.453Z,86.20
2023-02-26T15:01:16.055Z,79.97
2023-02-26T15:04:05.261Z,83.42
2023-02-26T15:06:48.369Z,86.10
2023-02-26T15:09:23.249Z,86.93
2023-02-26T15:12:05.545Z,85.15
2023-02-26T15:14:59.796Z,89.11
2023-02-26T15:17:38.989Z,86.00
2023-02-26T15:20:15.424Z,85.27
2023-02-26T15:22:58.728Z,82.36
2023-02-26T15:25:31.769Z,89.51
2023-02-26T15:28:00.414Z,89.65
2023-02-26T15:30:37.705Z,88.53
2023-02-26T15:33:12.892Z,97.47
2023-02-26T15:35:41.272Z,93.86
2023-02-26T15:38:12.240Z,94.13
2023-02-26T15:40:44.138Z,89.45
2023-02-26T15:43:17.096Z,91.51
2023-02-26T15:45:47.413Z,95.15
2023-02-26T15:48:19.786Z,95.93
2023-02-26T15:50:54.008Z,99.61
2023-02-26T15:53:30.873Z,100.00
2023-02-26T15:56:02.590Z,100.00
2023-02-26T15:58:36.880Z,93.33
2023-02-26T16:01:06.183Z,92.28
2023-02-26T16:03:36.951Z,89.27
2023-02-26T16:06:08.953Z,92.32
2023-02-26T16:08:41.469Z,90.70
2023-02-26T16:11:10.566Z,95.94
2023-02-26T16:13:43.447Z,94.05
2023-02-26T16:16:17.264Z,97.48
2023-02-26T16:18:46.891Z,98.17
2023-02-26T16:21:23.285Z,97.01
2023-02-26T16:23:55.472Z,99.98
2023-02-26T16:26:36.980Z,100.00
2023-02-26T16:29:13.101Z,100.00
2023-02-26T16:31:42.400Z,100.00
2023-02-26T16:34:25.123Z,100.00
2023-02-26T16:36:57.119Z,100.00
2023-02-26T16:39:31.594Z,100.00
2023-02-26T16:42:09.415Z,100.00
2023-02-26T16:44:51.347Z,100.00
2023-02-26T16:47:24.817Z,100.00
2023-02-26T16:49:54.294Z,100.00
2023-02-26T16:52:26.062Z,100.00
2023-02-26T16:55:02.015Z,100.00
2023-02-26T16:57:37.676Z,100.00
2023-02-26T17:00:10.996Z,100.00
2023-02-26T17:02:43.380Z,100.00
2023-02-26T17:05:22.582Z,100.00
2023-02-26T17:07:58.271Z,100.00
2023-02-26T17:10:34.178Z,100.00
2023-02-26T17:13:15.258Z,100.00
2023-02-26T17:15:45.483Z,100.00
2023-02-26T17:18:14.671Z,100.00
2023-02-26T17:20:43.834Z,100.00
2023-02-26T17:23:15.743Z,100.00
2023-02-26T17:25:47.256Z,100.00
2023-02-26T17:28:18.933Z,100.00
2023-02-26T17:30:47.311Z,100.00
2023-02-26T17:33:15.978Z,100.00
2023-02-26T17:35:44.783Z,100.00
2023-02-26T17:38:16.045Z,100.00
2023-02-26T17:40:48.754Z,100.00
2023-02-26T17:43:17.123Z,100.00
2023-02-26T17:45:45.651Z,100.00
2023-02-26T17:48:15.302Z,100.00
2023-02-26T17:50:47.270Z,100.00
2023-02-26T17:53:16.365Z,100.00
2023-02-26T17:55:47.086Z,100.00
2023-02-26T17:58:18.061Z,100.00
2023-02-26T18:00:49.800Z,100.00
2023-02-26T18:03:18.662Z,100.00
2023-02-26T18:05:47.186Z,100.00
2023-02-26T18:08:22.294Z,100.00
2023-02-26T18:10:52.243Z,100.00
2023-02-26T18:13:21.253Z,100.00
2023-02-26T18:15:50.417Z,100.00
2023-02-26T18:18:20.410Z,100.00
2023-02-26T18:20:49.338Z,100.00
2023-02-26T18:23:18.095Z,100.00
2023-02-26T18:25:49.252Z,100.00
2023-02-26T18:28:21.549Z,100.00
2023-02-26T18:30:50.205Z,100.00
2023-02-26T18:33:19.381Z,100.00
2023-02-26T18:35:51.891Z,100.00
2023-02-26T18:38:24.571Z,100.00
2023-02-26T18:40:56.335Z,100.00
2023-02-26T18:43:26.354Z,100.00
2023-02-26T18:46:01.524Z,100.00
2023-02-26T18:52:13.126Z,100.00
2023-02-26T18:54:42.024Z,100.00
2023-02-26T18:57:13.697Z,100.00
2023-02-26T18:59:43.756Z,100.00
2023-02-26T19:02:14.485Z,100.00
2023-02-26T19:04:43.832Z,100.00
2023-02-26T19:07:12.516Z,100.00
2023-02-26T19:09:40.796Z,100.00
2023-02-26T19:12:11.015Z,100.00
2023-02-26T19:15:05.405Z,100.00
2023-02-26T19:17:33.949Z,100.00
2023-02-26T19:20:03.750Z,100.00
2023-02-26T19:22:34.287Z,100.00
2023-02-26T19:25:02.779Z,100.00
2023-02-26T19:27:31.356Z,100.00
2023-02-26T19:30:03.534Z,100.00
2023-02-26T19:32:32.151Z,100.00
2023-02-26T19:35:00.717Z,100.00
2023-02-26T19:37:29.044Z,100.00
2023-02-26T19:39:57.559Z,100.00
2023-02-26T19:42:28.651Z,100.00
2023-02-26T19:44:57.166Z,100.00
2023-02-26T19:47:27.278Z,100.00
2023-02-26T19:49:55.668Z,100.00
2023-02-26T19:52:24.015Z,100.00
2023-02-26T19:55:00.098Z,100.00
2023-02-26T19:57:28.531Z,100.00
2023-02-26T19:59:57.178Z,100.00
2023-02-26T20:02:27.008Z,100.00
2023-02-26T20:04:55.490Z,100.00
2023-02-26T20:07:24.052Z,100.00
2023-02-26T20:09:52.431Z,100.00
2023-02-26T20:12:21.303Z,100.00
2023-02-26T20:14:49.864Z,100.00
2023-02-26T20:17:22.048Z,100.00
2023-02-26T20:19:51.874Z,100.00
2023-02-26T20:22:22.851Z,100.00
2023-02-26T20:24:52.324Z,100.00
2023-02-26T20:27:21.023Z,100.00
2023-02-26T20:29:50.938Z,100.00
2023-02-26T20:32:19.533Z,100.00
2023-02-26T20:34:48.108Z,100.00
2023-02-26T20:37:17.904Z,100.00
2023-02-26T20:39:46.309Z,100.00
2023-02-26T20:42:14.697Z,100.00
2023-02-26T20:44:43.195Z,100.00
2023-02-26T20:47:11.639Z,100.00
2023-02-26T20:49:40.108Z,100.00
2023-02-26T20:52:08.702Z,100.00
2023-02-26T20:54:38.728Z,100.00
2023-02-26T20:57:07.452Z,100.00
2023-02-26T20:59:35.797Z,100.00
2023-02-26T21:02:04.209Z,100.00
2023-02-26T21:04:32.635Z,100.00
2023-02-26T21:07:12.938Z,100.00
2023-02-26T21:09:43.921Z,100.00
2023-02-26T21:12:12.806Z,100.00
2023-02-26T21:14:41.024Z,100.00
2023-02-26T21:17:09.265Z,100.00
2023-02-26T21:19:37.829Z,100.00
2023-02-26T21:22:06.335Z,100.00
2023-02-26T21:24:34.924Z,100.00
2023-02-26T21:27:05.048Z,100.00
2023-02-26T21:29:33.650Z,100.00
2023-02-26T21:32:03.729Z,100.00
2023-02-26T21:34:34.271Z,100.00
2023-02-26T21:37:03.326Z,100.00
2023-02-26T21:39:32.602Z,100.00
2023-02-26T21:42:03.808Z,100.00
2023-02-26T21:44:34.959Z,100.00
2023-02-26T21:47:04.049Z,100.00
2023-02-26T21:49:33.116Z,100.00
2023-02-26T21:52:03.013Z,100.00
2023-02-26T21:54:31.816Z,100.00
2023-02-26T21:57:00.750Z,100.00
2023-02-26T21:59:29.575Z,100.00
2023-02-26T22:01:59.451Z,100.00
2023-02-26T22:04:28.226Z,100.00
2023-02-26T22:06:56.838Z,100.00
2023-02-26T22:09:25.086Z,100.00
2023-02-26T22:11:54.023Z,100.00
2023-02-26T22:14:22.453Z,100.00
2023-02-26T22:16:50.951Z,100.00
2023-02-26T22:19:20.930Z,100.00
2023-02-26T22:21:49.744Z,100.00
2023-02-26T22:24:18.146Z,100.00
2023-02-26T22:26:48.953Z,100.00
2023-02-26T22:29:19.305Z,100.00
2023-02-26T22:31:48.803Z,100.00
2023-02-26T22:34:17.301Z,100.00
2023-02-26T22:36:47.201Z,100.00
2023-02-26T22:39:15.977Z,100.00
2023-02-26T22:41:48.807Z,100.00
2023-02-26T22:44:17.208Z,100.00
2023-02-26T22:46:47.233Z,100.00
2023-02-26T22:49:15.675Z,100.00
2023-02-26T22:51:44.431Z,100.00
2023-02-26T22:54:14.364Z,100.00
2023-02-26T22:56:42.823Z,100.00
2023-02-26T22:59:11.392Z,100.00
2023-02-26T23:01:40.235Z,100.00
2023-02-26T23:04:09.110Z,100.00
2023-02-26T23:06:38.110Z,100.00
2023-02-26T23:09:07.937Z,100.00
2023-02-26T23:11:38.009Z,100.00
2023-02-26T23:14:06.320Z,100.00
2023-02-26T23:16:34.702Z,100.00
2023-02-26T23:19:04.526Z,100.00
2023-02-26T23:21:32.969Z,100.00
2023-02-26T23:24:01.331Z,100.00
2023-02-26T23:26:32.166Z,100.00
2023-02-26T23:29:02.027Z,100.00
2023-02-26T23:31:31.607Z,100.00
2023-02-26T23:34:00.326Z,100.00
2023-02-26T23:36:28.980Z,100.00
2023-02-26T23:38:57.470Z,100.00
2023-02-26T23:41:26.235Z,100.00
2023-02-26T23:43:54.693Z,100.00
2023-02-26T23:46:24.568Z,100.00
2023-02-26T23:48:53.164Z,100.00
2023-02-26T23:51:21.598Z,100.00
2023-02-26T23:53:49.880Z,100.00
2023-02-26T23:56:18.431Z,100.00
2023-02-26T23:58:46.881Z,100.00
